Time;durP1;ratioP1;P1;durP2;ratioP2;P2;SDS_P1;SDS_P2;PMS_P1;PMS_P2;Temp;Humidity;BMP_temperature;BMP_pressure;BME280_temperature;BME280_humidity;BME280_pressure;Samples;Min_cycle;Max_cycle;Signal;HPM_P1;HPM_P2
2022/04/25 00:00:25;;;;;;;6.53;5.80;;;10.00;99.90;;;;;;4969679;28;20244;-70
2022/04/25 00:02:52;;;;;;;7.17;6.40;;;10.00;99.90;;;;;;4962261;28;20288;-70
2022/04/25 00:05:19;;;;;;;7.73;6.30;;;10.00;99.90;;;;;;4972328;28;20232;-68
2022/04/25 00:07:46;;;;;;;6.20;5.60;;;10.00;99.90;;;;;;4969344;28;20205;-68
2022/04/25 00:10:13;;;;;;;5.33;4.80;;;10.00;99.90;;;;;;4965482;28;20212;-68
2022/04/25 00:12:40;;;;;;;6.20;5.23;;;10.00;99.90;;;;;;4959517;28;20509;-68
2022/04/25 00:15:09;;;;;;;6.33;5.27;;;10.00;99.90;;;;;;4971425;28;20319;-68
2022/04/25 00:17:36;;;;;;;6.10;4.90;;;10.00;99.90;;;;;;4957578;28;20255;-69
2022/04/25 00:20:03;;;;;;;5.90;5.20;;;10.00;99.90;;;;;;4962625;28;20241;-69
2022/04/25 00:22:30;;;;;;;6.87;5.50;;;10.00;99.90;;;;;;4962958;28;20274;-69
2022/04/25 00:24:58;;;;;;;5.57;4.97;;;10.00;99.90;;;;;;4962023;28;20215;-68
2022/04/25 00:27:25;;;;;;;7.37;5.00;;;10.00;99.90;;;;;;4975947;28;20212;-68
2022/04/25 00:29:52;;;;;;;5.73;4.87;;;10.00;99.90;;;;;;4960853;28;20201;-69
2022/04/25 00:32:20;;;;;;;5.53;5.00;;;10.00;99.90;;;;;;4965628;28;20244;-68
2022/04/25 00:34:47;;;;;;;5.27;4.50;;;10.00;99.90;;;;;;4972520;28;20312;-67
2022/04/25 00:37:14;;;;;;;4.60;4.13;;;10.00;99.90;;;;;;4960269;28;20209;-68
2022/04/25 00:39:41;;;;;;;5.10;4.60;;;10.00;99.90;;;;;;4968563;28;20751;-67
2022/04/25 00:42:08;;;;;;;7.00;4.83;;;10.00;99.90;;;;;;4967574;28;20244;-67
2022/04/25 00:44:35;;;;;;;6.33;4.50;;;10.00;99.90;;;;;;4968668;28;20658;-68
2022/04/25 00:47:03;;;;;;;5.23;4.57;;;10.00;99.90;;;;;;4955497;28;20198;-68
2022/04/25 00:49:31;;;;;;;5.00;4.30;;;10.10;99.90;;;;;;4965868;28;20239;-68
2022/04/25 00:51:58;;;;;;;5.47;4.87;;;10.10;99.90;;;;;;4970324;28;20216;-68
2022/04/25 00:54:25;;;;;;;5.20;4.60;;;10.10;99.90;;;;;;4958984;28;20213;-67
2022/04/25 00:56:52;;;;;;;5.13;4.40;;;10.10;99.90;;;;;;4962963;28;20267;-67
2022/04/25 00:59:22;;;;;;;4.53;4.10;;;10.10;99.90;;;;;;4969265;28;20217;-68
2022/04/25 01:01:51;;;;;;;4.80;4.30;;;10.10;99.90;;;;;;4963451;28;20219;-66
2022/04/25 01:04:18;;;;;;;5.13;4.63;;;10.10;99.90;;;;;;4958752;28;20304;-66
2022/04/25 01:06:46;;;;;;;5.03;4.33;;;10.10;99.90;;;;;;4967965;28;20677;-65
2022/04/25 01:09:13;;;;;;;5.27;4.43;;;10.10;99.90;;;;;;4968223;28;20254;-66
2022/04/25 01:11:40;;;;;;;4.87;3.87;;;10.00;99.90;;;;;;4976443;28;20608;-66
2022/04/25 01:14:15;;;;;;;4.30;3.90;;;10.10;99.90;;;;;;4962971;28;20251;-66
2022/04/25 01:16:42;;;;;;;4.23;3.83;;;10.10;99.90;;;;;;4965250;28;20232;-66
2022/04/25 01:19:09;;;;;;;4.03;3.63;;;10.10;99.90;;;;;;4964936;28;20208;-66
2022/04/25 01:21:41;;;;;;;4.50;3.63;;;10.00;99.90;;;;;;4957913;28;20240;-66
2022/04/25 01:29:39;;;;;;;4.17;3.77;;;9.90;99.90;;;;;;4960902;28;20208;-65
2022/04/25 01:32:07;;;;;;;4.00;3.50;;;9.90;99.90;;;;;;4958422;28;20216;-65
2022/04/25 01:34:36;;;;;;;4.50;3.83;;;9.90;99.90;;;;;;4971406;28;20212;-66
2022/04/25 01:37:08;;;;;;;3.90;3.50;;;9.80;99.90;;;;;;4958496;28;20233;-67
2022/04/25 01:39:38;;;;;;;4.77;3.50;;;9.80;99.90;;;;;;4958532;28;20209;-65
2022/04/25 01:42:06;;;;;;;4.17;3.60;;;9.80;99.90;;;;;;4956341;28;20212;-67
2022/04/25 01:44:33;;;;;;;3.40;3.10;;;9.70;99.90;;;;;;4957263;28;20573;-66
2022/04/25 01:47:00;;;;;;;3.73;3.43;;;9.70;99.90;;;;;;4966547;28;20201;-66
2022/04/25 01:49:27;;;;;;;3.90;3.60;;;9.60;99.90;;;;;;4957200;28;20213;-66
2022/04/25 01:51:54;;;;;;;4.47;3.80;;;9.60;99.90;;;;;;4973905;28;20208;-67
2022/04/25 01:54:26;;;;;;;4.03;3.50;;;9.60;99.90;;;;;;4958455;28;20206;-66
2022/04/25 01:56:55;;;;;;;3.57;3.27;;;9.60;99.90;;;;;;4962903;28;20218;-66
2022/04/25 01:59:23;;;;;;;3.80;3.13;;;9.60;99.90;;;;;;4963403;28;20782;-66
2022/04/25 02:01:50;;;;;;;3.60;3.30;;;9.60;99.90;;;;;;4957749;28;20223;-66
2022/04/25 02:04:17;;;;;;;3.60;3.30;;;9.60;99.90;;;;;;4957723;28;20241;-67
2022/04/25 02:06:43;;;;;;;4.10;3.70;;;9.50;99.90;;;;;;4963723;28;20208;-66
2022/04/25 02:09:11;;;;;;;4.80;4.10;;;9.60;99.90;;;;;;4960972;28;20233;-64
2022/04/25 02:11:37;;;;;;;4.90;3.77;;;9.60;99.90;;;;;;4965708;28;20582;-66
2022/04/25 02:14:06;;;;;;;4.60;3.27;;;9.60;99.90;;;;;;4976360;28;20667;-66
2022/04/25 02:16:34;;;;;;;4.00;3.40;;;9.60;99.90;;;;;;4956692;28;20257;-67
2022/04/25 02:19:00;;;;;;;3.27;2.97;;;9.60;99.90;;;;;;4956793;28;20209;-67
2022/04/25 02:21:27;;;;;;;3.93;3.43;;;9.50;99.90;;;;;;4956291;28;20225;-66
2022/04/25 02:23:54;;;;;;;4.53;4.13;;;9.50;99.90;;;;;;4956325;28;20247;-66
2022/04/25 02:26:21;;;;;;;3.87;3.47;;;9.50;99.90;;;;;;4955481;28;20289;-65
2022/04/25 02:28:48;;;;;;;4.27;3.87;;;9.50;99.90;;;;;;4965170;28;20595;-66
2022/04/25 02:31:16;;;;;;;5.17;4.23;;;9.50;99.90;;;;;;4969207;28;20208;-66
2022/04/25 02:33:44;;;;;;;4.13;3.73;;;9.60;99.90;;;;;;4955919;28;20214;-65
2022/04/25 02:36:12;;;;;;;4.30;3.80;;;9.60;99.90;;;;;;4955631;28;20231;-66
2022/04/25 02:38:41;;;;;;;4.33;3.77;;;9.50;99.90;;;;;;4973197;28;20550;-66
2022/04/25 02:41:08;;;;;;;4.67;3.90;;;9.50;99.90;;;;;;4963027;28;20237;-66
2022/04/25 02:43:37;;;;;;;4.30;3.90;;;9.50;99.90;;;;;;4956194;28;20706;-66
2022/04/25 02:46:05;;;;;;;5.00;4.37;;;9.50;99.90;;;;;;4956236;28;20297;-66
2022/04/25 02:48:34;;;;;;;4.77;4.27;;;9.50;99.90;;;;;;4955431;28;20671;-66
2022/04/25 02:51:01;;;;;;;4.87;4.33;;;9.50;99.90;;;;;;4956430;28;20224;-66
2022/04/25 02:53:28;;;;;;;5.97;4.17;;;9.50;99.90;;;;;;4956172;28;20209;-66
2022/04/25 02:55:55;;;;;;;4.97;4.50;;;9.50;99.90;;;;;;4956293;28;20714;-66
2022/04/25 02:58:22;;;;;;;5.30;4.60;;;9.50;99.90;;;;;;4970086;28;20236;-65
2022/04/25 03:00:50;;;;;;;6.40;4.70;;;9.50;99.90;;;;;;4974006;28;20212;-65
2022/04/25 03:03:19;;;;;;;5.47;4.40;;;9.50;99.90;;;;;;4961830;28;20215;-65
2022/04/25 03:05:48;;;;;;;5.00;4.50;;;9.50;99.90;;;;;;4972302;28;20596;-66
2022/04/25 03:08:17;;;;;;;5.50;4.73;;;9.50;99.90;;;;;;4956264;28;20582;-66
2022/04/25 03:10:45;;;;;;;5.57;4.73;;;9.50;99.90;;;;;;4955702;28;20213;-65
2022/04/25 03:13:13;;;;;;;5.23;4.27;;;9.50;99.90;;;;;;4955405;28;20669;-65
2022/04/25 03:15:40;;;;;;;4.70;4.30;;;9.50;99.90;;;;;;4954753;28;20259;-65
2022/04/25 03:18:08;;;;;;;4.50;4.10;;;9.50;99.90;;;;;;4967362;28;20201;-65
2022/04/25 03:20:35;;;;;;;5.10;4.53;;;9.50;99.90;;;;;;4966576;28;20204;-66
2022/04/25 03:23:05;;;;;;;6.53;4.83;;;9.50;99.90;;;;;;4967353;28;20288;-66
2022/04/25 03:25:32;;;;;;;4.93;4.53;;;9.50;99.90;;;;;;4955407;28;20256;-66
2022/04/25 03:27:59;;;;;;;5.30;4.80;;;9.50;99.90;;;;;;4955118;28;20304;-66
2022/04/25 03:30:26;;;;;;;5.30;4.80;;;9.40;99.90;;;;;;4955381;28;20655;-66
2022/04/25 03:32:53;;;;;;;6.90;5.20;;;9.50;99.90;;;;;;4955383;28;20319;-65
2022/04/25 03:35:22;;;;;;;5.33;4.83;;;9.50;99.90;;;;;;4959085;28;20209;-66
2022/04/25 03:37:50;;;;;;;6.37;5.50;;;9.50;99.90;;;;;;4954135;28;20229;-65
2022/04/25 03:40:19;;;;;;;6.70;5.13;;;9.50;99.90;;;;;;4955086;28;20236;-66
2022/04/25 03:42:46;;;;;;;6.13;5.27;;;9.60;99.90;;;;;;4961023;28;20218;-67
2022/04/25 03:45:16;;;;;;;5.83;4.83;;;9.50;99.90;;;;;;4955985;28;20418;-66
2022/04/25 03:47:44;;;;;;;6.23;5.60;;;9.50;99.90;;;;;;4957804;28;20675;-65
2022/04/25 03:50:12;;;;;;;7.30;6.47;;;9.50;99.90;;;;;;4954760;28;20715;-66
2022/04/25 03:52:40;;;;;;;6.60;5.77;;;9.50;99.90;;;;;;4964955;28;20283;-67
2022/04/25 03:57:55;;;;;;;6.50;5.90;;;9.50;99.90;;;;;;4958417;28;20223;-67
2022/04/25 04:00:22;;;;;;;5.80;5.20;;;9.40;99.90;;;;;;4968176;28;20711;-66
2022/04/25 04:02:49;;;;;;;7.17;5.43;;;9.40;99.90;;;;;;4960928;28;20240;-66
2022/04/25 04:05:16;;;;;;;6.10;5.50;;;9.40;99.90;;;;;;4957554;28;20702;-66
2022/04/25 04:07:43;;;;;;;6.03;5.43;;;9.40;99.90;;;;;;4967948;28;20657;-66
2022/04/25 04:10:10;;;;;;;6.40;5.80;;;9.40;99.90;;;;;;4954822;28;20213;-65
2022/04/25 04:12:38;;;;;;;7.07;5.33;;;9.50;99.90;;;;;;4953030;28;20312;-66
2022/04/25 04:15:07;;;;;;;6.10;5.50;;;9.50;99.90;;;;;;4954270;28;20227;-66
2022/04/25 04:17:34;;;;;;;6.20;5.27;;;9.50;99.90;;;;;;4953339;28;20224;-65
2022/04/25 04:20:02;;;;;;;6.47;5.67;;;9.50;99.90;;;;;;4953824;28;20236;-65
2022/04/25 04:22:31;;;;;;;7.07;6.33;;;9.50;99.90;;;;;;4956763;28;20225;-66
2022/04/25 04:25:01;;;;;;;7.50;6.63;;;9.50;99.90;;;;;;4966923;28;20577;-66
2022/04/25 04:27:31;;;;;;;7.10;6.07;;;9.50;99.90;;;;;;4956010;28;20667;-66
2022/04/25 04:29:58;;;;;;;6.93;6.23;;;9.50;99.90;;;;;;4958597;28;20231;-66
2022/04/25 04:32:29;;;;;;;6.67;5.97;;;9.50;99.90;;;;;;4957757;28;20209;-66
2022/04/25 04:34:56;;;;;;;7.37;5.73;;;9.60;99.90;;;;;;4970246;28;20205;-65
2022/04/25 04:37:24;;;;;;;6.87;6.17;;;9.50;99.90;;;;;;4961638;28;20236;-65
2022/04/25 04:39:51;;;;;;;7.13;6.30;;;9.50;99.90;;;;;;4957830;28;20666;-66
2022/04/25 04:42:18;;;;;;;7.10;6.40;;;9.50;99.90;;;;;;4957444;28;20670;-65
2022/04/25 04:44:45;;;;;;;6.80;6.20;;;9.50;99.90;;;;;;4957800;28;20223;-65
2022/04/25 04:47:15;;;;;;;7.00;6.33;;;9.60;99.90;;;;;;4966697;28;20212;-65
2022/04/25 04:49:43;;;;;;;7.60;6.40;;;9.50;99.90;;;;;;4957776;28;20607;-66
2022/04/25 04:52:10;;;;;;;7.30;6.60;;;9.50;99.90;;;;;;4973417;28;20295;-67
2022/04/25 04:54:37;;;;;;;7.10;6.40;;;9.50;99.90;;;;;;4957714;28;20261;-66
2022/04/25 04:57:04;;;;;;;7.63;6.93;;;9.50;99.90;;;;;;4970331;28;20710;-70
2022/04/25 04:59:31;;;;;;;8.70;7.23;;;9.60;99.90;;;;;;4958175;28;20213;-68
2022/04/25 05:01:58;;;;;;;8.50;7.17;;;9.60;99.90;;;;;;4964242;28;20313;-69
2022/04/25 05:04:25;;;;;;;7.50;6.60;;;9.60;99.90;;;;;;4957958;28;20209;-69
2022/04/25 05:06:53;;;;;;;7.30;6.60;;;9.60;99.90;;;;;;4959101;28;20209;-69
2022/04/25 05:09:20;;;;;;;8.47;6.83;;;9.60;99.90;;;;;;4961731;28;20277;-68
2022/04/25 05:11:47;;;;;;;8.63;7.73;;;9.60;99.90;;;;;;4974769;28;20781;-69
2022/04/25 05:14:14;;;;;;;8.07;6.97;;;9.60;99.90;;;;;;4958412;28;20300;-71
2022/04/25 05:16:41;;;;;;;8.60;7.70;;;9.60;99.90;;;;;;4957374;28;20229;-69
2022/04/25 05:19:08;;;;;;;8.87;7.27;;;9.60;99.90;;;;;;4958155;28;20213;-68
2022/04/25 05:21:35;;;;;;;9.00;8.10;;;9.60;99.90;;;;;;4967460;28;20233;-71
2022/04/25 05:24:03;;;;;;;8.53;7.40;;;9.60;99.90;;;;;;4958930;28;20205;-70
2022/04/25 05:26:30;;;;;;;8.87;8.07;;;9.60;99.90;;;;;;4969570;28;20696;-71
2022/04/25 05:28:58;;;;;;;8.40;7.23;;;9.60;99.90;;;;;;4976799;28;20205;-71
2022/04/25 05:31:25;;;;;;;8.67;7.37;;;9.70;99.90;;;;;;4970630;28;20299;-71
2022/04/25 05:33:52;;;;;;;10.00;8.00;;;9.70;99.90;;;;;;4959651;28;20264;-70
2022/04/25 05:36:18;;;;;;;8.33;7.30;;;9.70;99.90;;;;;;4966748;28;20272;-70
2022/04/25 05:38:45;;;;;;;9.80;7.73;;;9.70;99.90;;;;;;4969788;28;20558;-71
2022/04/25 05:41:14;;;;;;;8.27;7.47;;;9.70;99.90;;;;;;4966518;28;20324;-70
2022/04/25 05:43:41;;;;;;;8.60;7.53;;;9.70;99.90;;;;;;4965524;28;20657;-71
2022/04/25 05:46:08;;;;;;;8.83;7.93;;;9.80;99.90;;;;;;4964265;28;20247;-72
2022/04/25 05:54:05;;;;;;;8.57;7.77;;;9.80;99.90;;;;;;4967588;28;20294;-70
2022/04/25 05:56:33;;;;;;;8.70;7.60;;;9.80;99.90;;;;;;4961564;28;20235;-72
2022/04/25 05:59:02;;;;;;;8.23;7.43;;;9.80;99.90;;;;;;4959110;28;20240;-71
2022/04/25 06:01:29;;;;;;;8.63;7.73;;;9.80;99.90;;;;;;4963329;28;20572;-71
2022/04/25 06:03:56;;;;;;;9.20;8.00;;;9.90;99.90;;;;;;4957552;28;20209;-72
2022/04/25 06:06:26;;;;;;;8.93;7.60;;;9.90;99.90;;;;;;4968868;28;20217;-69
2022/04/25 06:08:53;;;;;;;9.33;8.43;;;9.90;99.90;;;;;;4966611;28;20239;-71
2022/04/25 06:11:21;;;;;;;8.73;7.90;;;9.90;99.90;;;;;;4967535;28;20273;-70
2022/04/25 06:13:50;;;;;;;8.63;7.70;;;9.90;99.90;;;;;;4970370;28;20208;-73
2022/04/25 06:16:17;;;;;;;7.67;6.87;;;9.90;99.90;;;;;;4966134;28;20583;-71
2022/04/25 06:18:44;;;;;;;9.90;7.83;;;9.90;99.90;;;;;;4960371;28;20233;-73
2022/04/25 06:21:11;;;;;;;7.90;7.10;;;10.00;99.90;;;;;;4976950;28;20256;-71
2022/04/25 06:23:38;;;;;;;8.00;7.20;;;10.00;99.90;;;;;;4976390;28;20212;-71
2022/04/25 06:26:05;;;;;;;7.77;6.97;;;10.00;99.90;;;;;;4967172;28;20305;-73
2022/04/25 06:28:32;;;;;;;7.77;6.73;;;10.00;99.90;;;;;;4971044;28;20599;-71
2022/04/25 06:31:00;;;;;;;7.83;6.87;;;10.10;99.90;;;;;;4971741;28;20299;-72
2022/04/25 06:33:27;;;;;;;8.60;7.70;;;10.10;99.90;;;;;;4970632;28;20237;-71
2022/04/25 06:35:54;;;;;;;7.87;7.07;;;10.00;99.90;;;;;;4971689;28;20217;-72
2022/04/25 06:38:21;;;;;;;6.97;6.27;;;10.00;99.90;;;;;;4971821;28;20308;-71
2022/04/25 06:40:48;;;;;;;9.20;7.20;;;10.00;99.90;;;;;;4963841;28;20229;-72
2022/04/25 06:43:15;;;;;;;8.03;7.27;;;10.00;99.90;;;;;;4962511;28;20220;-73
2022/04/25 06:45:42;;;;;;;7.90;7.10;;;10.00;99.90;;;;;;4975989;28;20208;-71
2022/04/25 06:48:11;;;;;;;7.87;7.17;;;9.90;99.90;;;;;;4973884;28;20611;-71
2022/04/25 06:50:37;;;;;;;9.30;7.23;;;9.90;99.90;;;;;;4971235;28;20644;-72
2022/04/25 06:53:04;;;;;;;8.30;7.50;;;10.00;99.90;;;;;;4957955;28;20209;-69
2022/04/25 06:55:31;;;;;;;8.50;7.40;;;10.00;99.90;;;;;;4974049;28;20219;-71
2022/04/25 06:58:00;;;;;;;8.13;7.33;;;10.00;99.90;;;;;;4956396;28;20261;-71
2022/04/25 07:00:27;;;;;;;8.73;7.77;;;10.10;99.90;;;;;;4961149;28;20217;-70
2022/04/25 07:02:55;;;;;;;8.97;7.30;;;10.10;99.90;;;;;;4958468;28;20224;-72
2022/04/25 07:05:24;;;;;;;8.23;7.00;;;10.10;99.90;;;;;;4972403;28;20601;-72
2022/04/25 07:07:51;;;;;;;7.50;6.80;;;10.10;99.90;;;;;;4967263;28;20210;-73
2022/04/25 07:10:18;;;;;;;7.87;6.70;;;10.10;99.90;;;;;;4967606;28;20642;-72
2022/04/25 07:12:45;;;;;;;7.67;6.87;;;10.10;99.90;;;;;;4971320;28;20296;-72
2022/04/25 07:15:12;;;;;;;7.57;6.67;;;10.10;99.90;;;;;;4957855;28;20213;-73
2022/04/25 07:17:40;;;;;;;6.70;6.07;;;10.10;99.90;;;;;;4969956;28;20229;-73
2022/04/25 07:20:08;;;;;;;7.30;6.60;;;10.00;99.90;;;;;;4971839;28;20690;-72
2022/04/25 07:30:50;;;;;;;6.43;5.73;;;10.00;99.90;;;;;;4967529;28;20244;-74
2022/04/25 07:33:17;;;;;;;7.17;6.47;;;10.00;99.90;;;;;;4963360;28;20692;-76
2022/04/25 07:35:43;;;;;;;6.37;5.63;;;10.00;99.90;;;;;;4977099;28;20287;-69
2022/04/25 07:38:12;;;;;;;6.33;5.73;;;10.00;99.90;;;;;;4960285;28;20233;-70
2022/04/25 07:40:41;;;;;;;8.60;7.80;;;10.00;99.90;;;;;;4963715;28;20486;-70
2022/04/25 07:43:08;;;;;;;6.50;5.90;;;10.00;99.90;;;;;;4970509;28;20712;-70
2022/04/25 07:45:34;;;;;;;6.10;5.53;;;10.10;99.90;;;;;;4958569;28;20212;-70
2022/04/25 07:48:01;;;;;;;6.93;6.23;;;10.20;99.90;;;;;;4958088;28;20209;-71
2022/04/25 07:50:28;;;;;;;6.73;6.13;;;10.10;99.90;;;;;;4974700;28;20671;-70
2022/04/25 07:52:55;;;;;;;8.20;7.40;;;10.20;99.90;;;;;;4964118;28;21056;-70
2022/04/25 07:55:23;;;;;;;8.70;7.90;;;10.20;99.90;;;;;;4957669;28;20461;-71
2022/04/25 07:57:51;;;;;;;7.23;6.53;;;10.20;99.90;;;;;;4961912;28;20237;-71
2022/04/25 08:00:18;;;;;;;6.20;5.60;;;10.30;99.90;;;;;;4965136;28;20216;-72
2022/04/25 08:02:45;;;;;;;7.67;5.90;;;10.30;99.90;;;;;;4964494;28;20240;-71
2022/04/25 08:05:12;;;;;;;6.10;5.50;;;10.40;99.90;;;;;;4969788;28;20244;-72
2022/04/25 08:07:39;;;;;;;6.47;5.43;;;10.40;99.90;;;;;;4973969;28;20728;-71
2022/04/25 08:10:07;;;;;;;7.77;6.70;;;10.50;99.90;;;;;;4969099;28;20223;-73
2022/04/25 08:18:06;;;;;;;12.70;8.40;;;10.50;99.90;;;;;;4960356;28;20327;-70
2022/04/25 08:20:35;;;;;;;11.00;7.47;;;10.50;99.90;;;;;;4959794;28;20205;-71
2022/04/25 08:23:04;;;;;;;10.20;7.60;;;10.40;99.90;;;;;;4962099;28;20207;-71
2022/04/25 08:25:31;;;;;;;7.40;6.10;;;10.50;99.90;;;;;;4960976;28;20637;-74
2022/04/25 08:28:00;;;;;;;9.10;6.70;;;10.50;99.90;;;;;;4958126;28;20213;-71
2022/04/25 08:30:28;;;;;;;9.03;6.30;;;10.50;99.90;;;;;;4956412;28;20252;-72
2022/04/25 08:32:56;;;;;;;11.53;6.93;;;10.50;99.90;;;;;;4957029;28;20208;-73
2022/04/25 08:35:23;;;;;;;10.27;7.97;;;10.50;99.90;;;;;;4971651;28;20217;-72
2022/04/25 08:37:50;;;;;;;7.50;6.67;;;10.60;99.90;;;;;;4961762;28;20319;-73
2022/04/25 08:40:17;;;;;;;8.43;6.20;;;10.60;99.90;;;;;;4958624;28;20605;-72
2022/04/25 08:42:44;;;;;;;10.43;6.47;;;10.60;99.90;;;;;;4975214;28;20212;-71
2022/04/25 08:45:13;;;;;;;6.53;5.23;;;10.60;99.90;;;;;;4962070;28;20205;-72
2022/04/25 08:47:45;;;;;;;8.27;6.33;;;10.70;99.90;;;;;;4959683;28;20222;-71
2022/04/25 08:50:13;;;;;;;7.70;5.80;;;10.70;99.90;;;;;;4944412;29;20476;-71
2022/04/25 08:52:41;;;;;;;9.50;6.60;;;10.70;99.90;;;;;;4966816;28;20237;-72
2022/04/25 08:55:08;;;;;;;7.07;5.40;;;10.80;99.90;;;;;;4964412;28;20312;-74
2022/04/25 08:57:36;;;;;;;7.13;5.87;;;10.80;99.90;;;;;;4969180;28;20232;-72
2022/04/25 09:00:05;;;;;;;5.53;5.03;;;10.80;99.90;;;;;;4963079;28;20219;-73
2022/04/25 09:02:34;;;;;;;10.77;6.00;;;10.90;99.90;;;;;;4973834;28;20212;-73
2022/04/25 09:05:01;;;;;;;6.13;5.20;;;10.90;99.90;;;;;;4966088;28;20205;-72
2022/04/25 09:07:28;;;;;;;8.90;6.13;;;10.90;99.90;;;;;;4966435;28;20232;-72
2022/04/25 09:09:55;;;;;;;7.53;5.67;;;10.90;99.90;;;;;;4966157;28;20209;-73
2022/04/25 09:12:22;;;;;;;7.13;5.57;;;10.90;99.90;;;;;;4960075;28;20270;-73
2022/04/25 09:14:50;;;;;;;6.63;5.40;;;11.00;99.90;;;;;;4961631;28;20236;-73
2022/04/25 09:17:17;;;;;;;6.10;5.50;;;11.00;99.90;;;;;;4969664;28;20276;-73
2022/04/25 09:19:46;;;;;;;6.20;5.60;;;11.00;99.90;;;;;;4959008;28;20243;-72
2022/04/25 09:22:13;;;;;;;5.90;5.27;;;11.00;99.90;;;;;;4957878;28;20315;-72
2022/04/25 09:24:45;;;;;;;5.37;4.67;;;11.00;99.90;;;;;;4959441;28;20213;-72
2022/04/25 09:27:17;;;;;;;8.37;5.00;;;11.00;99.90;;;;;;4963565;28;20209;-74
2022/04/25 09:29:43;;;;;;;6.93;6.20;;;11.00;99.90;;;;;;4960752;28;20367;-72
2022/04/25 09:32:10;;;;;;;6.37;5.00;;;11.00;99.90;;;;;;4964548;28;20300;-73
2022/04/25 09:37:41;;;;;;;7.40;5.37;;;11.00;99.90;;;;;;4971894;28;20204;-73
2022/04/25 09:40:09;;;;;;;5.27;4.30;;;11.10;99.90;;;;;;4974437;28;20315;-74
2022/04/25 09:42:37;;;;;;;6.77;4.80;;;11.10;99.90;;;;;;4973495;28;20209;-72
2022/04/25 09:45:05;;;;;;;5.37;4.50;;;11.10;99.90;;;;;;4972352;28;20220;-73
2022/04/25 09:47:34;;;;;;;6.13;4.87;;;11.20;99.90;;;;;;4974153;28;20201;-72
2022/04/25 09:50:02;;;;;;;5.87;4.27;;;11.20;99.90;;;;;;4976711;28;20220;-71
2022/04/25 09:52:31;;;;;;;6.17;5.07;;;11.30;99.90;;;;;;4974944;28;20256;-72
2022/04/25 09:55:11;;;;;;;5.93;4.23;;;11.30;99.90;;;;;;4974678;28;20217;-72
2022/04/25 09:57:38;;;;;;;7.70;4.77;;;11.40;99.90;;;;;;4968671;28;20234;-73
2022/04/25 10:00:06;;;;;;;5.50;4.07;;;11.40;99.90;;;;;;4961167;28;20219;-74
2022/04/25 10:02:38;;;;;;;4.23;3.80;;;11.40;99.90;;;;;;4974062;28;20232;-75
2022/04/25 10:05:13;;;;;;;4.27;3.87;;;11.40;99.90;;;;;;4969303;28;20637;-75
2022/04/25 10:07:42;;;;;;;3.83;3.43;;;11.50;99.90;;;;;;4972493;28;20208;-74
2022/04/25 10:10:10;;;;;;;3.70;3.40;;;11.50;99.90;;;;;;4957485;28;20324;-72
2022/04/25 10:12:37;;;;;;;5.33;4.03;;;11.50;99.90;;;;;;4956804;28;20659;-72
2022/04/25 10:15:05;;;;;;;5.67;3.90;;;11.50;99.90;;;;;;4963222;28;20205;-74
2022/04/25 10:17:32;;;;;;;5.67;4.00;;;11.40;99.90;;;;;;4949933;28;20706;-74
2022/04/25 10:20:00;;;;;;;6.93;3.70;;;11.40;99.90;;;;;;4963190;28;20229;-73
2022/04/25 10:22:28;;;;;;;5.10;4.00;;;11.40;99.90;;;;;;4963029;28;20689;-74
2022/04/25 10:24:56;;;;;;;4.57;3.60;;;11.40;99.90;;;;;;4956884;28;20212;-74
2022/04/25 10:27:28;;;;;;;3.70;3.40;;;11.40;99.90;;;;;;4956554;28;20206;-73
2022/04/25 10:29:58;;;;;;;3.60;3.30;;;11.40;99.90;;;;;;4955292;29;20201;-74
2022/04/25 10:32:25;;;;;;;3.93;3.50;;;11.40;99.90;;;;;;4956838;28;20237;-73
2022/04/25 10:34:59;;;;;;;3.60;3.30;;;11.40;99.90;;;;;;4969702;28;20208;-73
2022/04/25 10:37:30;;;;;;;4.93;4.40;;;11.40;99.90;;;;;;4969229;28;20205;-74
2022/04/25 10:39:59;;;;;;;4.40;4.00;;;11.50;99.90;;;;;;4959195;28;20228;-73
2022/04/25 10:45:53;;;;;;;3.77;3.43;;;11.60;99.90;;;;;;4900678;29;20212;-74
2022/04/25 10:48:20;;;;;;;4.10;3.63;;;11.60;99.90;;;;;;4962514;28;20201;-73
2022/04/25 10:51:10;;;;;;;4.70;3.87;;;11.70;99.90;;;;;;4965288;28;20213;-72
2022/04/25 10:53:59;;;;;;;5.10;4.53;;;11.70;99.90;;;;;;4963709;28;20202;-72
2022/04/25 10:56:27;;;;;;;5.60;4.10;;;11.70;99.90;;;;;;4963262;28;20233;-73
2022/04/25 10:59:22;;;;;;;3.97;3.30;;;11.80;99.90;;;;;;4957020;28;20289;-74
2022/04/25 11:01:50;;;;;;;4.60;4.20;;;11.90;99.90;;;;;;4952072;28;20210;-74
2022/04/25 11:04:18;;;;;;;4.67;3.60;;;11.80;99.90;;;;;;4960033;28;20210;-73
2022/04/25 11:06:45;;;;;;;4.47;3.70;;;11.90;99.90;;;;;;4966343;28;20216;-73
2022/04/25 11:09:36;;;;;;;4.93;4.00;;;11.90;99.90;;;;;;4960485;28;20726;-73
2022/04/25 11:12:06;;;;;;;7.20;4.47;;;11.90;99.90;;;;;;4958011;28;20291;-76
2022/04/25 11:14:33;;;;;;;5.93;5.33;;;11.90;99.90;;;;;;4958818;28;20743;-73
2022/04/25 11:17:13;;;;;;;4.90;4.03;;;11.90;99.90;;;;;;4957733;28;20269;-75
2022/04/25 11:19:46;;;;;;;5.63;5.10;;;11.90;99.90;;;;;;4960805;28;20216;-72
2022/04/25 11:22:54;;;;;;;10.23;5.67;;;11.90;99.90;;;;;;4966268;28;20224;-75
2022/04/25 11:25:39;;;;;;;7.57;5.03;;;11.90;99.90;;;;;;4957036;28;20208;-74
2022/04/25 11:28:10;;;;;;;7.37;3.93;;;11.90;99.90;;;;;;4970657;28;20264;-73
2022/04/25 11:30:37;;;;;;;5.43;4.43;;;11.90;99.90;;;;;;4956353;28;20632;-74
2022/04/25 11:33:05;;;;;;;7.73;5.03;;;11.90;99.90;;;;;;4961883;28;20209;-73
2022/04/25 11:35:33;;;;;;;5.73;4.93;;;11.80;99.90;;;;;;4960077;28;20227;-74
2022/04/25 11:38:00;;;;;;;6.10;4.80;;;11.90;99.90;;;;;;4970482;28;20213;-72
2022/04/25 11:40:28;;;;;;;5.87;5.13;;;11.90;99.90;;;;;;4955810;28;20328;-73
2022/04/25 11:42:56;;;;;;;6.90;4.97;;;11.90;99.90;;;;;;4963799;28;20604;-74
2022/04/25 11:45:24;;;;;;;6.53;5.33;;;11.90;99.90;;;;;;4955429;28;20205;-74
2022/04/25 11:47:51;;;;;;;7.73;5.57;;;11.90;99.90;;;;;;4967832;28;20209;-72
2022/04/25 11:50:22;;;;;;;4.97;4.17;;;11.90;99.90;;;;;;4955994;28;20240;-74
2022/04/25 11:52:51;;;;;;;6.47;4.73;;;12.00;99.90;;;;;;4961165;28;20217;-76
2022/04/25 11:55:19;;;;;;;5.43;4.80;;;12.00;99.90;;;;;;4956400;28;20947;-74
2022/04/25 11:57:46;;;;;;;5.67;4.97;;;12.00;99.90;;;;;;4961910;28;20301;-74
2022/04/25 12:00:16;;;;;;;6.13;4.87;;;12.00;99.90;;;;;;4974404;28;20236;-75
2022/04/25 12:02:45;;;;;;;7.17;4.87;;;12.10;99.90;;;;;;4966608;28;20209;-73
2022/04/25 12:05:12;;;;;;;7.97;5.60;;;12.20;99.90;;;;;;4970425;28;20205;-73
2022/04/25 12:15:34;;;;;;;5.97;5.27;;;12.20;99.90;;;;;;4965456;28;20288;-72
2022/04/25 12:16:00;;;;;;;6.30;4.10;;;12.40;99.90;;;;;;4961000;28;20255;-72
2022/04/25 12:18:30;;;;;;;4.53;3.67;;;12.50;99.90;;;;;;4959096;28;20857;-73
2022/04/25 12:21:03;;;;;;;3.97;3.23;;;12.50;99.90;;;;;;4955360;28;20240;-73
2022/04/25 12:23:31;;;;;;;7.53;4.63;;;12.60;99.90;;;;;;4958120;28;20216;-73
2022/04/25 12:26:03;;;;;;;4.47;3.40;;;12.70;99.90;;;;;;4955080;28;20209;-73
2022/04/25 12:28:32;;;;;;;5.27;3.70;;;12.80;99.90;;;;;;4955272;28;20201;-72
2022/04/25 12:31:06;;;;;;;4.30;3.30;;;12.80;99.90;;;;;;4963961;28;20337;-72
2022/04/25 12:33:36;;;;;;;4.30;3.57;;;12.80;99.90;;;;;;4966862;28;20212;-72
2022/04/25 12:36:14;;;;;;;5.40;3.20;;;12.70;99.90;;;;;;4958236;28;20535;-72
2022/04/25 12:38:46;;;;;;;5.77;3.57;;;12.70;99.90;;;;;;4955957;28;20277;-72
2022/04/25 12:41:21;;;;;;;3.97;3.30;;;12.80;99.90;;;;;;4958134;28;20288;-72
2022/04/25 12:43:50;;;;;;;3.40;3.10;;;12.80;99.90;;;;;;4967566;28;20205;-73
2022/04/25 12:46:19;;;;;;;4.67;3.40;;;12.80;99.90;;;;;;4957281;28;20221;-72
2022/04/25 12:49:04;;;;;;;5.20;2.73;;;12.80;99.90;;;;;;4960961;28;20655;-72
2022/04/25 12:51:36;;;;;;;3.43;3.13;;;12.80;99.90;;;;;;4966730;28;20200;-72
2022/04/25 12:54:05;;;;;;;3.93;3.30;;;12.80;99.90;;;;;;4963028;28;20470;-73
2022/04/25 12:56:34;;;;;;;5.67;4.03;;;12.80;99.90;;;;;;4961177;28;20237;-72
2022/04/25 12:59:02;;;;;;;5.90;2.90;;;12.70;99.90;;;;;;4965824;28;20307;-75
2022/04/25 13:01:31;;;;;;;3.27;2.97;;;12.80;99.90;;;;;;4962191;28;20615;-72
2022/04/25 13:04:11;;;;;;;4.73;3.10;;;12.70;99.90;;;;;;4970136;28;20200;-73
2022/04/25 13:06:38;;;;;;;4.63;3.30;;;12.70;99.90;;;;;;4968895;28;20594;-72
2022/04/25 13:09:06;;;;;;;6.20;3.13;;;12.70;99.90;;;;;;4958800;28;20209;-72
2022/04/25 13:11:33;;;;;;;5.53;3.30;;;12.80;99.90;;;;;;4959101;28;20341;-72
2022/04/25 13:14:00;;;;;;;5.33;3.30;;;12.90;99.90;;;;;;4958074;28;20217;-72
2022/04/25 13:16:30;;;;;;;4.13;3.07;;;12.90;99.90;;;;;;4961103;28;20273;-72
2022/04/25 13:18:57;;;;;;;3.53;3.10;;;12.90;99.90;;;;;;4974121;28;20236;-72
2022/04/25 13:21:25;;;;;;;5.63;4.20;;;12.90;99.90;;;;;;4959341;28;20628;-71
2022/04/25 13:23:53;;;;;;;4.30;3.30;;;13.00;99.90;;;;;;4957999;28;20221;-72
2022/04/25 13:26:21;;;;;;;6.27;4.30;;;13.00;99.90;;;;;;4966544;28;20221;-72
2022/04/25 13:28:49;;;;;;;3.67;2.73;;;13.10;99.90;;;;;;4958740;28;20300;-73
2022/04/25 13:31:16;;;;;;;3.73;2.57;;;13.10;99.90;;;;;;4959770;28;20211;-72
2022/04/25 13:33:43;;;;;;;4.13;2.80;;;13.10;99.90;;;;;;4964220;28;20213;-73
2022/04/25 13:36:10;;;;;;;3.03;2.57;;;13.00;99.90;;;;;;4958605;28;20218;-72